createdAt,value
2022-11-15T00:01:45.496Z,7.4
2022-11-15T04:15:09.660Z,7.6
2022-11-15T04:20:19.034Z,7.4
2022-11-15T04:26:22.255Z,6.9
2022-11-15T04:31:31.775Z,6.6
2022-11-15T04:36:39.245Z,6.5
2022-11-15T04:41:46.721Z,6.9
2022-11-15T04:46:54.217Z,6.9
2022-11-15T04:52:01.839Z,7
2022-11-15T04:57:09.203Z,7.1
2022-11-15T05:02:16.697Z,7.1
2022-11-15T05:07:24.203Z,6.6
2022-11-15T05:12:31.652Z,7.1
2022-11-15T05:17:39.118Z,7
2022-11-15T05:22:46.609Z,6.8
2022-11-15T05:27:54.138Z,6.8
2022-11-15T05:33:01.607Z,7.1
2022-11-15T05:38:09.088Z,6.9
2022-11-15T05:43:16.612Z,7.1
2022-11-15T05:48:24.133Z,7.2
2022-11-15T05:53:31.515Z,7.5
2022-11-15T05:58:39.006Z,7.6
2022-11-15T06:03:46.492Z,7.6
2022-11-15T06:08:53.996Z,7.9
2022-11-15T06:14:01.430Z,7.9
2022-11-15T06:19:08.672Z,7.8
2022-11-15T06:24:16.131Z,7.9
2022-11-15T06:29:23.519Z,7.9
2022-11-15T06:34:30.950Z,7.9
2022-11-15T06:39:38.389Z,7.9
2022-11-15T06:44:45.884Z,8
2022-11-15T06:49:53.516Z,7.9
2022-11-15T06:55:00.932Z,7.8
2022-11-15T07:00:08.587Z,7.8
2022-11-15T07:05:15.971Z,7.5
2022-11-15T07:10:23.483Z,7.8
2022-11-15T07:15:31.104Z,8.4
2022-11-15T07:20:38.523Z,8.6
2022-11-15T07:25:45.949Z,9.5
2022-11-15T07:30:53.430Z,10.7
2022-11-15T07:36:00.974Z,10.9
2022-11-15T07:41:08.283Z,11.3
2022-11-15T07:46:15.778Z,11.5
2022-11-15T07:51:23.426Z,11.6
2022-11-15T07:56:31.117Z,11.9
2022-11-15T08:01:38.680Z,12.3
2022-11-15T08:06:46.345Z,12.4
2022-11-15T08:11:53.889Z,12.9
2022-11-15T08:17:01.640Z,13
2022-11-15T08:22:09.053Z,13.4
2022-11-15T08:27:16.654Z,13.2
2022-11-15T08:32:24.258Z,13.7
2022-11-15T08:37:31.794Z,13.9
2022-11-15T08:42:39.304Z,14
2022-11-15T08:47:46.746Z,14.7
2022-11-15T08:52:54.300Z,14.9
2022-11-15T08:58:02.363Z,14.9
2022-11-15T09:03:10.405Z,15.5
2022-11-15T09:08:18.477Z,15.6
2022-11-15T09:13:26.680Z,16
2022-11-15T09:18:34.768Z,16.1
2022-11-15T09:23:42.704Z,14.9
2022-11-15T09:28:50.715Z,14.9
2022-11-15T09:33:58.727Z,15.6
2022-11-15T09:39:06.667Z,15.5
2022-11-15T09:44:14.653Z,15.9
2022-11-15T09:49:22.647Z,16.2
2022-11-15T09:54:30.660Z,16.9
2022-11-15T09:59:37.259Z,17.8
2022-11-15T10:04:44.236Z,17.3
2022-11-15T10:09:51.068Z,20.1
2022-11-15T10:14:58.096Z,19.3
2022-11-15T10:20:04.946Z,18.3
2022-11-15T10:25:11.961Z,18.4
2022-11-15T10:30:18.973Z,18.3
2022-11-15T10:35:25.858Z,19.1
2022-11-15T10:40:32.599Z,19
2022-11-15T10:45:39.590Z,18.3
2022-11-15T10:50:46.464Z,18.9
2022-11-15T10:55:53.358Z,20.4
2022-11-15T11:01:00.192Z,19.8
2022-11-15T11:06:07.219Z,18.9
2022-11-15T11:11:14.089Z,17.8
2022-11-15T11:16:20.875Z,18.4
2022-11-15T11:21:27.720Z,17.7
2022-11-15T11:26:34.678Z,18.4
2022-11-15T16:18:57.995Z,6
2022-11-15T16:24:06.123Z,5.8
2022-11-15T16:29:13.560Z,6
2022-11-15T16:34:21.348Z,5.9
2022-11-15T16:39:28.949Z,6.5
2022-11-15T16:44:36.631Z,7.5
2022-11-15T16:49:44.331Z,7.7
2022-11-15T16:54:51.984Z,8
2022-11-15T16:59:59.569Z,8
2022-11-15T17:05:07.158Z,8.1
2022-11-15T17:10:14.764Z,7
2022-11-15T17:15:22.408Z,6.2
2022-11-15T17:20:30.015Z,5.9
2022-11-15T17:25:37.657Z,6.1
2022-11-15T17:30:45.358Z,6
2022-11-15T17:35:53.003Z,5.9
2022-11-15T17:41:00.680Z,6
2022-11-15T17:46:08.337Z,6.2
2022-11-15T17:51:16.035Z,6
2022-11-15T17:56:23.701Z,5.7
2022-11-15T18:01:31.417Z,5.4
2022-11-15T18:06:39.069Z,5.6
2022-11-15T18:11:46.794Z,5.2
2022-11-15T18:16:54.500Z,5.2
2022-11-15T18:22:02.198Z,5.6
2022-11-15T18:27:10.097Z,5.5
2022-11-15T18:32:18.045Z,5.4
2022-11-15T18:37:26.061Z,5.5
2022-11-15T18:42:34.007Z,5.1
2022-11-15T18:47:41.930Z,5.3
2022-11-15T18:52:49.868Z,5.6
2022-11-15T18:57:57.914Z,6.4
2022-11-15T19:03:05.640Z,6.7
2022-11-15T19:08:13.813Z,6.9
2022-11-15T19:13:21.519Z,7.2
2022-11-15T19:18:29.634Z,7.9
2022-11-15T19:23:37.517Z,8.4
2022-11-15T19:28:45.465Z,8.5
2022-11-15T19:33:53.253Z,8.5
2022-11-15T19:39:01.657Z,8.4
2022-11-15T19:44:09.982Z,8.5
2022-11-15T19:49:18.460Z,8.3
2022-11-15T19:54:26.822Z,8.3
2022-11-15T19:59:35.316Z,8.2
2022-11-15T20:04:43.758Z,8.3
2022-11-15T20:09:51.952Z,8.2
2022-11-15T20:15:00.392Z,7.9
2022-11-15T20:20:09.011Z,7.8
2022-11-15T20:25:17.356Z,7.8
2022-11-15T20:30:25.800Z,7.6
2022-11-15T20:35:34.187Z,7.1
2022-11-15T20:40:42.735Z,6.8
2022-11-15T20:45:51.948Z,6.9
2022-11-15T20:50:59.703Z,6.8
2022-11-15T20:56:07.005Z,7
2022-11-15T21:01:14.503Z,7
2022-11-15T21:06:22.204Z,7.2
2022-11-15T21:11:29.658Z,7.3
2022-11-15T21:16:37.222Z,7.5
2022-11-15T21:21:44.626Z,7.5
2022-11-15T21:26:52.176Z,7.2
2022-11-15T21:31:59.554Z,7.4
2022-11-15T21:37:07.147Z,7.3
2022-11-15T21:42:14.626Z,7.2
2022-11-15T21:47:22.041Z,7
2022-11-15T21:52:29.528Z,6.7
2022-11-15T21:57:36.953Z,6.3
2022-11-15T22:02:44.415Z,6.1
2022-11-15T22:07:51.916Z,6.2
2022-11-15T22:12:59.382Z,6.3
2022-11-15T22:18:07.001Z,6.5
2022-11-15T22:23:14.502Z,6.2
2022-11-15T22:28:22.099Z,5.2
2022-11-15T22:33:29.620Z,5.2
2022-11-15T22:38:37.053Z,5.9
2022-11-15T22:43:44.802Z,6.3
2022-11-15T22:48:52.327Z,6.2
2022-11-15T22:53:59.917Z,6.2
2022-11-15T22:59:07.619Z,6.3
2022-11-15T23:04:15.324Z,6.2
2022-11-15T23:09:22.926Z,5.9
2022-11-15T23:14:30.632Z,5.6
2022-11-15T23:19:38.107Z,5.6
2022-11-15T23:24:45.992Z,5.5
2022-11-15T23:29:53.471Z,5.4
2022-11-15T23:35:01.162Z,5.4
2022-11-15T23:40:08.879Z,5.3
2022-11-15T23:45:16.611Z,5.2
2022-11-15T23:50:24.323Z,5.4
2022-11-15T23:55:32.037Z,5.2
